Time;durP1;ratioP1;P1;durP2;ratioP2;P2;SDS_P1;SDS_P2;PMS_P1;PMS_P2;Temp;Humidity;BMP_temperature;BMP_pressure;BME280_temperature;BME280_humidity;BME280_pressure;Samples;Min_cycle;Max_cycle;Signal;HPM_P1;HPM_P2
2023/04/11 00:02:03;;;;;;;;;;;;;;;9.46;91.04;100841.19;5022837;28;19963;-64
2023/04/11 00:04:28;;;;;;;;;;;;;;;9.37;91.01;100842.19;5019532;28;20309;-63
2023/04/11 00:06:53;;;;;;;;;;;;;;;9.34;90.58;100825.78;5022115;28;20015;-64
2023/04/11 00:09:19;;;;;;;;;;;;;;;9.34;90.27;100826.59;4960861;28;1705263;-63
2023/04/11 00:11:44;;;;;;;;;;;;;;;9.28;90.03;100835.22;5022957;28;19921;-63
2023/04/11 00:14:11;;;;;;;;;;;;;;;9.37;90.17;100839.53;5023096;28;20386;-63
2023/04/11 00:16:36;;;;;;;;;;;;;;;9.30;90.00;100842.00;5023044;28;20322;-64
2023/04/11 00:19:02;;;;;;;;;;;;;;;9.21;90.18;100837.66;5024102;28;19917;-64
2023/04/11 00:21:27;;;;;;;;;;;;;;;9.19;90.36;100846.75;5024617;28;19920;-64
2023/04/11 00:23:52;;;;;;;;;;;;;;;9.16;90.13;100844.44;5020957;28;19917;-64
2023/04/11 00:26:18;;;;;;;;;;;;;;;9.10;90.44;100842.44;5023481;28;19917;-64
2023/04/11 00:28:43;;;;;;;;;;;;;;;9.14;90.42;100839.28;5020330;28;19924;-64
2023/04/11 00:31:08;;;;;;;;;;;;;;;9.02;90.60;100840.59;5025162;28;19925;-63
2023/04/11 00:33:33;;;;;;;;;;;;;;;8.94;90.58;100848.50;5018266;28;19990;-63
2023/04/11 00:35:58;;;;;;;;;;;;;;;8.95;91.18;100855.44;5018751;28;19968;-64
2023/04/11 00:38:24;;;;;;;;;;;;;;;8.86;91.39;100848.47;5025813;28;19924;-64
2023/04/11 00:40:49;;;;;;;;;;;;;;;8.80;91.12;100847.28;5025665;28;19917;-63
2023/04/11 00:43:14;;;;;;;;;;;;;;;8.80;91.47;100855.22;5022557;28;19917;-64
2023/04/11 00:45:39;;;;;;;;;;;;;;;8.69;92.09;100837.81;5025027;28;19990;-62
2023/04/11 00:48:05;;;;;;;;;;;;;;;8.68;91.99;100864.44;5022485;28;19916;-62
2023/04/11 00:50:30;;;;;;;;;;;;;;;8.65;92.59;100857.63;5019657;28;19924;-64
2023/04/11 00:52:56;;;;;;;;;;;;;;;8.67;92.76;100860.13;5023140;28;19929;-64
2023/04/11 00:55:22;;;;;;;;;;;;;;;8.70;92.59;100854.53;5018004;28;19920;-63
2023/04/11 00:57:47;;;;;;;;;;;;;;;8.70;92.41;100851.88;5023652;28;19920;-63
2023/04/11 01:00:13;;;;;;;;;;;;;;;8.66;92.86;100859.28;5025681;28;19925;-63
2023/04/11 01:02:41;;;;;;;;;;;;;;;8.60;93.00;100856.44;5021624;28;19921;-63
2023/04/11 01:05:07;;;;;;;;;;;;;;;8.57;92.88;100856.75;5024995;28;19986;-64
2023/04/11 01:07:33;;;;;;;;;;;;;;;8.53;92.76;100855.41;5019506;28;20509;-63
2023/04/11 01:09:59;;;;;;;;;;;;;;;8.54;93.00;100846.50;5024399;28;20389;-63
2023/04/11 01:12:24;;;;;;;;;;;;;;;8.51;93.10;100854.75;5021376;28;19925;-64
2023/04/11 01:14:50;;;;;;;;;;;;;;;8.50;92.79;100847.78;5025665;28;19917;-64
2023/04/11 01:17:15;;;;;;;;;;;;;;;8.53;93.04;100839.53;5028787;28;19921;-63
2023/04/11 01:19:40;;;;;;;;;;;;;;;8.54;92.56;100857.91;5022036;28;19917;-63
2023/04/11 01:22:06;;;;;;;;;;;;;;;8.58;92.38;100855.78;5027623;28;19963;-64
2023/04/11 01:24:31;;;;;;;;;;;;;;;8.50;92.65;100855.75;5023937;28;19929;-64
2023/04/11 01:26:57;;;;;;;;;;;;;;;8.43;92.66;100865.28;5021832;28;19921;-63
2023/04/11 01:29:22;;;;;;;;;;;;;;;8.42;92.70;100858.34;5021671;28;19924;-64
2023/04/11 01:31:48;;;;;;;;;;;;;;;8.42;93.10;100847.75;5028809;28;19933;-63
2023/04/11 01:34:14;;;;;;;;;;;;;;;8.43;92.76;100850.25;5017429;28;19932;-64
2023/04/11 01:36:40;;;;;;;;;;;;;;;8.38;92.57;100848.06;5028176;28;19913;-63
2023/04/11 01:39:05;;;;;;;;;;;;;;;8.35;92.85;100852.81;5022367;28;19917;-64
2023/04/11 01:41:32;;;;;;;;;;;;;;;8.36;93.11;100859.78;5028385;28;19917;-63
2023/04/11 01:43:58;;;;;;;;;;;;;;;8.29;93.03;100864.81;5031651;28;19921;-64
2023/04/11 01:46:23;;;;;;;;;;;;;;;8.30;92.61;100865.66;5025917;28;20468;-63
2023/04/11 01:48:49;;;;;;;;;;;;;;;8.27;92.89;100876.56;5025123;28;20024;-64
2023/04/11 01:51:14;;;;;;;;;;;;;;;8.17;93.15;100871.38;5022642;28;20012;-63
2023/04/11 01:53:39;;;;;;;;;;;;;;;8.14;93.14;100879.63;5015953;28;19921;-63
2023/04/11 01:56:05;;;;;;;;;;;;;;;8.14;93.49;100881.44;5022150;28;20590;-63
2023/04/11 01:58:30;;;;;;;;;;;;;;;8.16;93.24;100879.47;5024365;28;19924;-64
2023/04/11 02:00:55;;;;;;;;;;;;;;;8.15;93.34;100883.09;5018602;28;19943;-63
2023/04/11 02:03:21;;;;;;;;;;;;;;;8.14;93.33;100882.25;5027599;28;20027;-64
2023/04/11 02:05:46;;;;;;;;;;;;;;;8.10;93.37;100885.38;5026589;28;19921;-63
2023/04/11 02:08:11;;;;;;;;;;;;;;;8.08;93.78;100886.31;5029371;28;20367;-64
2023/04/11 02:10:36;;;;;;;;;;;;;;;8.08;93.78;100899.53;5021584;28;19924;-64
2023/04/11 02:13:01;;;;;;;;;;;;;;;8.09;94.15;100889.81;5022885;28;19929;-63
2023/04/11 02:15:27;;;;;;;;;;;;;;;8.08;93.99;100894.25;5025900;28;19963;-64
2023/04/11 02:17:52;;;;;;;;;;;;;;;8.12;94.25;100901.91;5019774;28;19917;-63
2023/04/11 02:20:20;;;;;;;;;;;;;;;8.23;93.63;100896.38;5022578;28;19924;-63
2023/04/11 02:22:45;;;;;;;;;;;;;;;8.24;93.66;100898.03;5026238;28;19913;-63
2023/04/11 02:25:10;;;;;;;;;;;;;;;8.21;93.93;100885.94;5017701;28;19924;-63
2023/04/11 02:27:35;;;;;;;;;;;;;;;8.19;93.60;100887.09;5028200;28;19921;-63
2023/04/11 02:30:04;;;;;;;;;;;;;;;8.18;93.29;100894.19;5028423;28;19924;-64
2023/04/11 02:32:29;;;;;;;;;;;;;;;8.14;93.03;100900.78;5029327;28;19918;-63
2023/04/11 02:34:54;;;;;;;;;;;;;;;8.13;92.90;100901.75;5027966;28;19923;-63
2023/04/11 02:37:20;;;;;;;;;;;;;;;8.04;92.92;100898.19;5020501;28;19963;-64
2023/04/11 02:39:45;;;;;;;;;;;;;;;8.11;92.68;100913.47;5027064;28;19952;-62
2023/04/11 02:42:11;;;;;;;;;;;;;;;8.01;92.80;100910.91;5018601;28;20374;-63
2023/04/11 02:44:36;;;;;;;;;;;;;;;8.01;92.40;100903.78;5024093;28;19967;-64
2023/04/11 02:47:01;;;;;;;;;;;;;;;7.98;92.45;100898.81;5024107;28;19917;-64
2023/04/11 02:49:27;;;;;;;;;;;;;;;7.90;92.65;100903.22;5023519;28;19924;-64
2023/04/11 02:51:52;;;;;;;;;;;;;;;7.88;92.46;100905.19;5024634;28;19929;-63
2023/04/11 02:54:17;;;;;;;;;;;;;;;7.89;92.35;100914.78;5020591;28;19917;-63
2023/04/11 02:56:42;;;;;;;;;;;;;;;7.83;92.58;100900.34;5027317;28;19955;-63
2023/04/11 02:59:07;;;;;;;;;;;;;;;7.75;92.49;100914.28;5026825;28;19916;-64
2023/04/11 03:01:33;;;;;;;;;;;;;;;7.81;92.42;100917.34;5022189;28;19928;-63
2023/04/11 03:03:58;;;;;;;;;;;;;;;7.72;92.39;100922.53;5024852;28;19917;-63
2023/04/11 03:06:23;;;;;;;;;;;;;;;7.68;92.31;100913.25;5020587;28;19917;-63
2023/04/11 03:08:49;;;;;;;;;;;;;;;7.60;91.91;100920.25;5023165;28;20551;-64
2023/04/11 03:11:14;;;;;;;;;;;;;;;7.74;91.47;100923.22;5022791;28;19940;-64
2023/04/11 03:13:40;;;;;;;;;;;;;;;7.85;91.02;100926.63;5026749;28;19936;-63
2023/04/11 03:16:06;;;;;;;;;;;;;;;7.80;90.39;100921.78;5024343;28;19971;-63
2023/04/11 03:18:32;;;;;;;;;;;;;;;7.71;90.21;100920.03;5026353;28;20290;-62
2023/04/11 03:20:57;;;;;;;;;;;;;;;7.63;90.38;100928.72;5014371;28;19913;-64
2023/04/11 03:23:22;;;;;;;;;;;;;;;7.68;90.25;100928.28;5028694;28;19921;-62
2023/04/11 03:25:47;;;;;;;;;;;;;;;7.62;90.04;100935.00;5022669;28;20338;-64
2023/04/11 03:28:13;;;;;;;;;;;;;;;7.61;90.15;100935.97;5026067;28;19925;-63
2023/04/11 03:30:39;;;;;;;;;;;;;;;7.59;90.60;100940.56;5025375;28;20398;-63
2023/04/11 03:33:05;;;;;;;;;;;;;;;7.63;90.52;100939.28;5017167;28;19921;-63
2023/04/11 03:35:30;;;;;;;;;;;;;;;7.73;90.49;100950.63;5027561;28;19919;-64
2023/04/11 03:37:55;;;;;;;;;;;;;;;7.70;90.77;100937.72;5027193;28;19917;-63
2023/04/11 03:40:21;;;;;;;;;;;;;;;7.74;90.83;100947.00;5027410;28;20338;-62
2023/04/11 03:42:46;;;;;;;;;;;;;;;7.84;90.46;100954.88;5025867;28;19960;-64
2023/04/11 03:45:11;;;;;;;;;;;;;;;7.90;90.23;100956.09;5025158;28;19924;-63
2023/04/11 03:47:37;;;;;;;;;;;;;;;7.88;90.50;100952.78;5027560;28;19917;-63
2023/04/11 03:50:02;;;;;;;;;;;;;;;7.90;90.37;100956.09;5029800;28;19945;-64
2023/04/11 03:52:28;;;;;;;;;;;;;;;7.92;89.55;100956.78;5023324;28;19928;-63
2023/04/11 03:54:53;;;;;;;;;;;;;;;8.02;89.38;100966.28;5009359;28;19913;-63
2023/04/11 03:57:18;;;;;;;;;;;;;;;8.00;89.11;100965.59;5021955;28;19990;-64
2023/04/11 03:59:43;;;;;;;;;;;;;;;8.01;89.15;100963.78;5021687;28;19929;-64
2023/04/11 04:02:08;;;;;;;;;;;;;;;7.95;88.61;100952.00;5023551;28;19925;-62
2023/04/11 04:04:35;;;;;;;;;;;;;;;8.05;88.27;100973.06;5017451;28;19918;-64
2023/04/11 04:07:00;;;;;;;;;;;;;;;8.07;88.29;100981.69;5026231;28;19913;-64
2023/04/11 04:09:25;;;;;;;;;;;;;;;8.01;88.09;100979.66;5020440;28;19917;-63
2023/04/11 04:11:51;;;;;;;;;;;;;;;7.93;87.93;100977.78;5024804;28;19979;-63
2023/04/11 04:14:16;;;;;;;;;;;;;;;8.00;87.60;100975.34;5023944;28;19917;-63
2023/04/11 04:16:41;;;;;;;;;;;;;;;7.87;87.75;100966.97;5028267;28;19917;-64
2023/04/11 04:19:06;;;;;;;;;;;;;;;7.88;88.16;100984.50;5020630;28;19914;-63
2023/04/11 04:21:32;;;;;;;;;;;;;;;7.83;87.87;100984.13;5025656;28;19917;-63
2023/04/11 04:24:02;;;;;;;;;;;;;;;7.80;88.20;100981.75;5023509;28;19961;-62
2023/04/11 04:26:28;;;;;;;;;;;;;;;7.80;88.19;100990.50;5028106;28;19913;-64
2023/04/11 04:28:56;;;;;;;;;;;;;;;7.81;88.15;100986.09;5026048;28;19929;-62
2023/04/11 04:31:24;;;;;;;;;;;;;;;7.78;87.99;100985.38;5014629;28;19923;-64
2023/04/11 04:33:49;;;;;;;;;;;;;;;7.71;88.17;100979.03;5021037;28;20909;-64
2023/04/11 04:36:16;;;;;;;;;;;;;;;7.62;88.19;100990.50;5022344;28;20007;-63
2023/04/11 04:38:42;;;;;;;;;;;;;;;7.58;88.25;100986.47;5017137;28;20019;-64
2023/04/11 04:41:13;;;;;;;;;;;;;;;7.57;87.84;100995.41;5026190;28;20008;-63
2023/04/11 04:43:40;;;;;;;;;;;;;;;7.53;88.19;100995.84;5021983;28;19976;-63
2023/04/11 04:46:06;;;;;;;;;;;;;;;7.46;88.44;100988.47;5013993;28;19914;-63
2023/04/11 04:48:31;;;;;;;;;;;;;;;7.46;88.37;100993.75;5018390;28;20375;-63
2023/04/11 04:50:56;;;;;;;;;;;;;;;7.39;88.44;101005.06;5024393;28;20436;-63
2023/04/11 04:53:21;;;;;;;;;;;;;;;7.42;88.69;101012.69;5022803;28;19921;-64
2023/04/11 04:55:46;;;;;;;;;;;;;;;7.37;88.68;101021.06;5023900;28;20432;-63
2023/04/11 04:58:11;;;;;;;;;;;;;;;7.33;88.35;101018.88;5028568;28;19917;-64
2023/04/11 05:00:37;;;;;;;;;;;;;;;7.38;88.20;101024.53;5019986;28;20059;-63
2023/04/11 05:03:04;;;;;;;;;;;;;;;7.33;88.14;101029.44;5021870;28;19921;-64
2023/04/11 05:05:30;;;;;;;;;;;;;;;7.26;88.51;101038.91;5028891;28;19936;-63
2023/04/11 05:07:55;;;;;;;;;;;;;;;7.20;88.59;101048.22;5024936;28;19913;-63
2023/04/11 05:10:20;;;;;;;;;;;;;;;7.29;88.64;101046.56;5019966;28;20050;-62
2023/04/11 05:12:46;;;;;;;;;;;;;;;7.28;88.69;101042.25;5027123;28;19925;-64
2023/04/11 05:15:11;;;;;;;;;;;;;;;7.24;88.60;101044.34;5028267;28;19920;-63
2023/04/11 05:17:37;;;;;;;;;;;;;;;7.24;88.59;101041.69;5027323;28;19917;-63
2023/04/11 05:20:05;;;;;;;;;;;;;;;7.23;88.33;101055.03;5020655;28;19917;-63
2023/04/11 05:22:30;;;;;;;;;;;;;;;7.21;88.53;101054.34;5019663;28;19945;-64
2023/04/11 05:24:55;;;;;;;;;;;;;;;7.13;88.55;101062.97;5020985;28;20010;-63
2023/04/11 05:27:21;;;;;;;;;;;;;;;7.07;88.89;101060.91;5021942;28;20362;-63
2023/04/11 05:29:46;;;;;;;;;;;;;;;7.10;88.59;101065.91;5019992;28;19921;-63
2023/04/11 05:32:11;;;;;;;;;;;;;;;7.10;88.56;101066.75;5018207;28;20394;-63
2023/04/11 05:34:48;;;;;;;;;;;;;;;7.06;88.62;101065.38;5024970;28;19944;-63
2023/04/11 05:37:13;;;;;;;;;;;;;;;7.06;88.87;101068.00;5022761;28;19960;-62
2023/04/11 05:39:39;;;;;;;;;;;;;;;7.04;89.15;101067.31;5024465;28;20023;-63
2023/04/11 05:42:04;;;;;;;;;;;;;;;7.10;89.23;101076.47;5028340;28;20382;-64
2023/04/11 05:44:29;;;;;;;;;;;;;;;7.11;89.13;101084.25;5029056;28;20003;-64
2023/04/11 05:46:55;;;;;;;;;;;;;;;7.09;89.33;101078.28;5027096;28;19921;-63
2023/04/11 05:49:20;;;;;;;;;;;;;;;7.12;89.38;101088.56;5026387;28;19968;-64
2023/04/11 05:51:45;;;;;;;;;;;;;;;7.13;89.74;101076.19;5018334;28;20672;-62
2023/04/11 05:54:12;;;;;;;;;;;;;;;7.24;89.72;101094.53;5027272;28;19917;-64
2023/04/11 05:56:41;;;;;;;;;;;;;;;7.32;89.97;101099.09;5021219;28;19920;-62
2023/04/11 05:59:06;;;;;;;;;;;;;;;7.41;90.14;101103.50;5021714;28;19924;-63
2023/04/11 06:01:31;;;;;;;;;;;;;;;7.45;90.21;101105.72;5028415;28;20143;-64
2023/04/11 06:03:56;;;;;;;;;;;;;;;7.44;89.90;101098.75;5026109;28;19921;-64
2023/04/11 06:06:22;;;;;;;;;;;;;;;7.46;90.01;101119.75;5026223;28;20268;-63
2023/04/11 06:08:48;;;;;;;;;;;;;;;7.47;90.00;101116.13;5019429;28;19921;-64
2023/04/11 06:11:13;;;;;;;;;;;;;;;7.54;89.88;101114.59;5024719;28;19917;-64
2023/04/11 06:13:38;;;;;;;;;;;;;;;7.50;90.03;101121.13;5027847;28;20423;-63
2023/04/11 06:16:04;;;;;;;;;;;;;;;7.52;89.80;101113.94;5025702;28;19917;-64
2023/04/11 06:18:29;;;;;;;;;;;;;;;7.53;90.05;101104.19;5021170;28;19952;-64
2023/04/11 06:20:54;;;;;;;;;;;;;;;7.58;90.24;101125.72;5022374;28;19967;-63
2023/04/11 06:23:20;;;;;;;;;;;;;;;7.57;90.17;101122.25;5028440;28;20375;-64
2023/04/11 06:25:45;;;;;;;;;;;;;;;7.56;90.39;101131.16;5028412;28;20378;-64
2023/04/11 06:28:10;;;;;;;;;;;;;;;7.55;90.14;101118.91;5024774;28;19921;-64
2023/04/11 06:30:35;;;;;;;;;;;;;;;7.53;89.86;101126.16;5027022;28;19928;-63
2023/04/11 06:33:00;;;;;;;;;;;;;;;7.53;89.82;101126.16;5026609;28;20550;-64
2023/04/11 06:35:26;;;;;;;;;;;;;;;7.60;89.95;101143.09;5024361;28;19921;-63
2023/04/11 06:37:51;;;;;;;;;;;;;;;7.70;89.62;101125.38;5018788;28;20383;-64
2023/04/11 06:40:18;;;;;;;;;;;;;;;7.81;89.58;101134.97;5023306;28;19918;-63
2023/04/11 06:42:44;;;;;;;;;;;;;;;7.85;89.56;101131.03;5027052;28;20022;-64
2023/04/11 06:45:09;;;;;;;;;;;;;;;7.86;89.19;101131.88;5025297;28;20642;-64
2023/04/11 06:47:34;;;;;;;;;;;;;;;7.95;88.48;101134.47;5025154;28;19994;-63
2023/04/11 06:50:00;;;;;;;;;;;;;;;8.03;88.04;101139.03;5023201;28;20441;-64
2023/04/11 06:52:25;;;;;;;;;;;;;;;8.07;87.72;101140.38;5024324;28;19928;-63
2023/04/11 06:54:50;;;;;;;;;;;;;;;8.18;87.21;101152.59;5017656;28;19925;-63
2023/04/11 06:57:16;;;;;;;;;;;;;;;8.20;86.68;101156.78;5028607;28;20435;-64
2023/04/11 06:59:41;;;;;;;;;;;;;;;8.32;86.29;101154.75;5025867;28;19918;-64
2023/04/11 07:02:07;;;;;;;;;;;;;;;8.37;86.27;101152.50;5025261;28;20435;-63
2023/04/11 07:04:32;;;;;;;;;;;;;;;8.38;86.17;101149.75;5023354;28;20008;-64
2023/04/11 07:06:57;;;;;;;;;;;;;;;8.47;85.82;101152.47;5026189;28;20059;-64
2023/04/11 07:09:23;;;;;;;;;;;;;;;8.55;85.10;101171.06;5027752;28;20329;-63
2023/04/11 07:11:48;;;;;;;;;;;;;;;8.61;84.08;101154.59;5025042;28;20016;-64
2023/04/11 07:14:13;;;;;;;;;;;;;;;8.58;84.26;101161.00;5026360;28;21494;-64
2023/04/11 07:16:39;;;;;;;;;;;;;;;8.72;84.17;101180.03;5026315;28;19928;-64
2023/04/11 07:19:04;;;;;;;;;;;;;;;8.73;83.49;101185.19;5022076;28;19960;-64
2023/04/11 07:21:31;;;;;;;;;;;;;;;8.79;83.63;101202.28;5026841;28;19927;-63
2023/04/11 07:23:56;;;;;;;;;;;;;;;8.81;83.46;101177.31;5020234;28;19917;-63
2023/04/11 07:26:22;;;;;;;;;;;;;;;8.80;83.07;101201.28;5026012;28;19925;-63
2023/04/11 07:28:48;;;;;;;;;;;;;;;8.86;82.92;101179.50;5027780;28;19983;-64
2023/04/11 07:31:13;;;;;;;;;;;;;;;8.95;82.90;101176.75;5020935;28;20696;-62
2023/04/11 07:33:41;;;;;;;;;;;;;;;8.87;82.54;101210.28;5016412;28;19975;-64
2023/04/11 07:36:07;;;;;;;;;;;;;;;8.85;81.77;101194.56;5026506;28;20387;-64
2023/04/11 07:38:33;;;;;;;;;;;;;;;8.96;81.95;101191.69;5023792;28;19924;-64
2023/04/11 07:41:00;;;;;;;;;;;;;;;8.94;82.22;101200.75;5022397;28;20501;-63
2023/04/11 07:43:26;;;;;;;;;;;;;;;9.04;81.98;101187.47;5022545;28;19925;-64
2023/04/11 07:45:55;;;;;;;;;;;;;;;9.12;82.11;101188.34;5024206;28;20283;-63
2023/04/11 07:48:21;;;;;;;;;;;;;;;9.05;80.89;101200.53;5017110;28;19917;-63
2023/04/11 07:50:46;;;;;;;;;;;;;;;9.04;80.01;101208.66;5020762;28;19913;-64
2023/04/11 07:53:11;;;;;;;;;;;;;;;9.05;80.42;101195.25;5021769;28;19960;-63
2023/04/11 07:55:36;;;;;;;;;;;;;;;9.05;79.87;101200.53;5025920;28;20394;-64
2023/04/11 07:58:02;;;;;;;;;;;;;;;9.18;80.06;101202.81;5018613;28;19979;-64
2023/04/11 08:00:29;;;;;;;;;;;;;;;9.30;80.12;101191.00;5023934;28;19921;-63
2023/04/11 08:02:57;;;;;;;;;;;;;;;9.40;79.18;101218.22;5024031;28;19917;-64
2023/04/11 08:05:22;;;;;;;;;;;;;;;9.42;78.81;101210.97;5019300;28;19925;-63
2023/04/11 08:07:47;;;;;;;;;;;;;;;9.35;79.16;101204.63;5029479;28;20382;-64
2023/04/11 08:10:13;;;;;;;;;;;;;;;9.42;77.50;101212.78;5026782;28;20290;-64
2023/04/11 08:12:38;;;;;;;;;;;;;;;9.40;77.01;101234.13;5015534;28;19922;-63
2023/04/11 08:15:03;;;;;;;;;;;;;;;9.43;77.39;101217.91;5025135;28;20409;-64
2023/04/11 08:17:29;;;;;;;;;;;;;;;9.42;77.17;101229.50;5016266;28;19917;-64
2023/04/11 08:19:54;;;;;;;;;;;;;;;9.35;76.27;101241.72;5023433;28;19917;-64
2023/04/11 08:22:19;;;;;;;;;;;;;;;9.49;76.05;101229.72;5026684;28;19928;-63
2023/04/11 08:24:44;;;;;;;;;;;;;;;9.63;74.96;101251.22;5027501;28;20000;-64
2023/04/11 08:27:09;;;;;;;;;;;;;;;9.68;74.94;101226.06;5028436;28;19952;-64
2023/04/11 08:29:35;;;;;;;;;;;;;;;9.85;74.96;101238.47;5030384;28;19920;-63
2023/04/11 08:32:00;;;;;;;;;;;;;;;10.03;74.34;101252.47;5030339;28;19921;-63
2023/04/11 08:34:25;;;;;;;;;;;;;;;9.99;74.10;101251.13;5026890;28;19913;-63
2023/04/11 08:36:50;;;;;;;;;;;;;;;9.84;72.88;101240.28;5027351;28;20351;-63
2023/04/11 08:39:15;;;;;;;;;;;;;;;9.80;72.23;101246.84;5034866;28;20004;-63
2023/04/11 08:41:40;;;;;;;;;;;;;;;9.85;72.58;101235.81;5022773;28;20259;-63
2023/04/11 08:44:09;;;;;;;;;;;;;;;10.01;73.17;101257.13;5026418;28;19975;-63
2023/04/11 08:46:39;;;;;;;;;;;;;;;10.12;71.59;101254.22;5026710;28;20361;-64
2023/04/11 08:49:04;;;;;;;;;;;;;;;10.37;71.78;101270.28;5027462;28;20449;-63
2023/04/11 08:51:30;;;;;;;;;;;;;;;10.45;70.66;101275.66;5019685;28;20558;-63
2023/04/11 08:53:59;;;;;;;;;;;;;;;10.41;70.79;101250.41;5023179;28;19925;-63
2023/04/11 08:56:24;;;;;;;;;;;;;;;10.44;70.02;101252.75;5024110;28;19953;-64
2023/04/11 08:58:50;;;;;;;;;;;;;;;10.52;70.39;101255.41;5028897;28;20495;-63
2023/04/11 09:01:25;;;;;;;;;;;;;;;10.55;70.23;101255.09;5023268;28;19921;-64
2023/04/11 09:03:51;;;;;;;;;;;;;;;10.72;69.46;101254.19;5026503;28;20390;-63
2023/04/11 09:06:16;;;;;;;;;;;;;;;10.83;68.62;101263.66;5025351;28;19917;-64
2023/04/11 09:08:42;;;;;;;;;;;;;;;10.89;67.31;101257.69;5019954;28;19917;-63
2023/04/11 09:11:07;;;;;;;;;;;;;;;10.77;65.86;101290.88;5020906;28;20012;-63
2023/04/11 09:13:32;;;;;;;;;;;;;;;10.79;66.45;101268.47;5023011;28;19972;-63
2023/04/11 09:16:05;;;;;;;;;;;;;;;10.84;65.88;101282.09;5029016;28;19917;-63
2023/04/11 09:18:37;;;;;;;;;;;;;;;10.89;65.27;101260.34;5021767;28;19958;-64
2023/04/11 09:21:04;;;;;;;;;;;;;;;10.97;65.63;101257.69;5020852;28;19920;-64
2023/04/11 09:23:29;;;;;;;;;;;;;;;11.06;65.39;101264.72;5019671;28;19917;-63
2023/04/11 09:25:55;;;;;;;;;;;;;;;11.23;65.66;101264.72;5028628;28;19966;-63
2023/04/11 09:28:20;;;;;;;;;;;;;;;11.28;64.66;101267.75;5020687;28;20429;-64
2023/04/11 09:30:50;;;;;;;;;;;;;;;11.34;63.73;101273.22;5021479;28;19917;-63
2023/04/11 09:33:19;;;;;;;;;;;;;;;11.35;64.57;101264.25;5025611;28;20530;-64
2023/04/11 09:35:45;;;;;;;;;;;;;;;11.44;64.10;101270.41;5021719;28;20396;-64
2023/04/11 09:38:10;;;;;;;;;;;;;;;11.46;64.44;101279.03;5028913;28;20260;-63
2023/04/11 09:40:42;;;;;;;;;;;;;;;11.38;64.04;101266.59;5028764;28;19923;-63
2023/04/11 09:43:08;;;;;;;;;;;;;;;11.20;63.83;101275.69;5029436;28;19924;-63
2023/04/11 09:45:33;;;;;;;;;;;;;;;10.98;64.81;101274.47;5026691;28;19996;-63
2023/04/11 09:47:58;;;;;;;;;;;;;;;11.00;65.57;101285.81;5022155;28;20394;-63
2023/04/11 09:50:26;;;;;;;;;;;;;;;10.92;64.97;101288.41;5022349;28;19918;-64
2023/04/11 09:52:52;;;;;;;;;;;;;;;10.82;65.06;101293.88;5027269;28;20409;-64
2023/04/11 09:55:19;;;;;;;;;;;;;;;10.73;64.51;101294.84;5020114;28;19914;-64
2023/04/11 09:57:45;;;;;;;;;;;;;;;10.56;63.08;101296.59;5027016;28;20279;-63
2023/04/11 10:00:17;;;;;;;;;;;;;;;10.48;63.34;101291.25;5022149;28;19971;-64
2023/04/11 10:02:44;;;;;;;;;;;;;;;10.37;63.58;101291.50;5028312;28;19913;-63
2023/04/11 10:05:11;;;;;;;;;;;;;;;10.59;64.34;101298.09;5023927;28;20134;-64
2023/04/11 10:07:43;;;;;;;;;;;;;;;10.92;64.87;101297.22;5021066;28;19963;-63
2023/04/11 10:10:09;;;;;;;;;;;;;;;11.18;64.80;101286.50;5026010;28;20450;-63
2023/04/11 10:12:34;;;;;;;;;;;;;;;11.33;64.17;101297.34;5027990;28;20001;-63
2023/04/11 10:15:07;;;;;;;;;;;;;;;11.29;63.81;101291.50;5025744;28;19921;-63
2023/04/11 10:17:32;;;;;;;;;;;;;;;11.43;63.75;101298.00;5021658;28;19940;-64
2023/04/11 10:19:58;;;;;;;;;;;;;;;11.52;61.89;101299.66;5020051;28;19970;-64
2023/04/11 10:22:45;;;;;;;;;;;;;;;11.35;60.50;101301.50;5021626;28;19917;-63
2023/04/11 10:25:17;;;;;;;;;;;;;;;11.40;61.07;101303.66;5020984;28;20334;-63
2023/04/11 10:27:52;;;;;;;;;;;;;;;11.55;59.63;101290.50;5021013;28;20008;-63
2023/04/11 10:30:17;;;;;;;;;;;;;;;11.64;59.79;101289.53;5014250;28;20047;-63
2023/04/11 10:33:08;;;;;;;;;;;;;;;11.85;60.78;101284.53;5022693;28;19996;-63
2023/04/11 10:35:33;;;;;;;;;;;;;;;12.13;60.27;101286.84;5019103;28;20004;-63
2023/04/11 10:37:58;;;;;;;;;;;;;;;12.31;60.03;101274.97;5025208;28;20130;-63
2023/04/11 10:40:25;;;;;;;;;;;;;;;12.35;58.08;101299.44;5027590;28;19928;-66
2023/04/11 10:42:50;;;;;;;;;;;;;;;12.38;57.35;101299.91;5016659;28;19917;-65
2023/04/11 10:45:16;;;;;;;;;;;;;;;12.40;57.94;101281.09;5018928;28;19925;-66
2023/04/11 10:47:41;;;;;;;;;;;;;;;12.45;57.28;101293.94;5024210;28;19924;-66
2023/04/11 10:50:22;;;;;;;;;;;;;;;12.24;55.47;101287.31;5019034;28;20282;-66
2023/04/11 10:52:47;;;;;;;;;;;;;;;12.29;55.70;101289.47;5014371;28;19928;-66
2023/04/11 10:55:15;;;;;;;;;;;;;;;12.29;55.10;101302.78;5022935;28;19913;-69
2023/04/11 10:57:59;;;;;;;;;;;;;;;12.31;55.70;101322.09;5023633;28;19951;-66
2023/04/11 11:00:26;;;;;;;;;;;;;;;11.96;55.23;101308.19;5024007;28;19917;-66
2023/04/11 11:02:52;;;;;;;;;;;;;;;11.91;55.55;101302.53;5012475;28;19956;-66
2023/04/11 11:05:17;;;;;;;;;;;;;;;11.94;56.22;101286.22;5027241;28;20003;-66
2023/04/11 11:07:46;;;;;;;;;;;;;;;12.06;56.31;101305.31;5021620;28;19971;-69
2023/04/11 11:10:12;;;;;;;;;;;;;;;11.95;55.68;101290.53;5025192;28;20012;-66
2023/04/11 11:12:50;;;;;;;;;;;;;;;11.98;56.21;101284.06;5002908;28;20004;-65
2023/04/11 11:15:15;;;;;;;;;;;;;;;12.21;56.62;101294.84;5021314;28;19993;-67
2023/04/11 11:17:41;;;;;;;;;;;;;;;12.44;55.99;101292.28;5020563;28;19932;-66
2023/04/11 11:20:13;;;;;;;;;;;;;;;12.65;55.76;101298.66;5024855;28;19956;-67
2023/04/11 11:22:39;;;;;;;;;;;;;;;12.87;55.75;101305.06;5020650;28;19922;-66
2023/04/11 11:25:07;;;;;;;;;;;;;;;13.03;55.69;101296.16;5010420;28;20458;-66
2023/04/11 11:27:33;;;;;;;;;;;;;;;13.14;53.73;101293.09;5024672;28;19913;-67
2023/04/11 11:30:08;;;;;;;;;;;;;;;13.10;52.85;101305.13;5014055;28;20004;-66
2023/04/11 11:32:33;;;;;;;;;;;;;;;13.07;51.84;101297.47;5024155;28;19917;-66
2023/04/11 11:34:59;;;;;;;;;;;;;;;13.02;50.71;101302.50;5017084;28;19917;-65
2023/04/11 11:37:24;;;;;;;;;;;;;;;13.01;51.39;101293.69;5023717;28;20008;-66
2023/04/11 11:39:50;;;;;;;;;;;;;;;13.26;51.47;101310.38;5026466;28;20402;-66
2023/04/11 11:42:15;;;;;;;;;;;;;;;13.21;50.70;101310.06;5021539;28;19936;-67
2023/04/11 11:44:41;;;;;;;;;;;;;;;13.15;50.86;101325.94;5021012;28;20440;-66
2023/04/11 11:47:16;;;;;;;;;;;;;;;13.20;51.67;101297.75;5023241;28;19913;-66
2023/04/11 11:49:51;;;;;;;;;;;;;;;13.25;50.99;101308.72;5021263;28;19940;-66
2023/04/11 11:52:38;;;;;;;;;;;;;;;13.31;51.75;101307.19;5020340;28;19921;-66
2023/04/11 11:55:04;;;;;;;;;;;;;;;13.42;50.62;101327.28;5023246;28;20314;-66
2023/04/11 11:57:32;;;;;;;;;;;;;;;13.37;49.52;101308.31;5019284;28;19920;-67
2023/04/11 12:00:00;;;;;;;;;;;;;;;13.26;51.15;101314.88;5025248;28;20000;-67
2023/04/11 12:02:26;;;;;;;;;;;;;;;13.36;51.57;101315.50;5025143;28;20020;-70
2023/04/11 12:04:56;;;;;;;;;;;;;;;13.47;50.75;101324.91;5018812;28;20003;-66
2023/04/11 12:07:21;;;;;;;;;;;;;;;13.41;50.68;101312.28;5018812;28;19991;-66
2023/04/11 12:09:47;;;;;;;;;;;;;;;13.46;51.79;101309.91;5019781;28;19990;-66
2023/04/11 12:12:13;;;;;;;;;;;;;;;13.66;52.34;101320.97;5019604;28;20334;-66
2023/04/11 12:14:38;;;;;;;;;;;;;;;13.77;50.10;101304.50;5022393;28;19921;-66
2023/04/11 12:17:07;;;;;;;;;;;;;;;13.79;49.85;101305.16;5021093;28;19917;-66
2023/04/11 12:19:32;;;;;;;;;;;;;;;13.68;47.74;101310.94;5025784;28;20509;-68
2023/04/11 12:21:57;;;;;;;;;;;;;;;13.65;48.55;101330.81;5025549;28;19919;-68
2023/04/11 12:24:22;;;;;;;;;;;;;;;13.62;49.29;101305.31;5017015;28;19922;-66
2023/04/11 12:26:47;;;;;;;;;;;;;;;13.75;48.85;101322.53;5017969;28;20024;-68
2023/04/11 12:29:12;;;;;;;;;;;;;;;13.64;48.10;101329.16;5020422;28;19921;-66
2023/04/11 12:31:38;;;;;;;;;;;;;;;13.59;47.87;101310.19;5026644;28;19975;-66
2023/04/11 12:34:03;;;;;;;;;;;;;;;13.65;48.47;101309.44;5025890;28;19921;-66
2023/04/11 12:36:28;;;;;;;;;;;;;;;13.73;48.32;101311.22;5021439;28;19913;-68
2023/04/11 12:38:53;;;;;;;;;;;;;;;13.63;47.22;101322.16;5021147;28;19960;-67